sensor_id;sensor_type;location;lat;lon;timestamp;pressure;altitude;pressure_sealevel;temperature;humidity
74544;BME280;63016;55.030;38.710;2023-04-22T00:01:30;99376.03;;;8.74;31.15
74544;BME280;63016;55.030;38.710;2023-04-22T00:03:56;99374.72;;;8.70;31.04
74544;BME280;63016;55.030;38.710;2023-04-22T00:06:21;99371.66;;;8.66;31.05
74544;BME280;63016;55.030;38.710;2023-04-22T00:08:47;99375.41;;;8.64;31.19
74544;BME280;63016;55.030;38.710;2023-04-22T00:11:12;99376.56;;;8.61;31.18
74544;BME280;63016;55.030;38.710;2023-04-22T00:13:38;99378.50;;;8.59;31.25
74544;BME280;63016;55.030;38.710;2023-04-22T00:16:03;99364.69;;;8.50;30.92
74544;BME280;63016;55.030;38.710;2023-04-22T00:18:29;99373.16;;;8.53;31.10
74544;BME280;63016;55.030;38.710;2023-04-22T00:20:55;99368.63;;;8.46;31.54
74544;BME280;63016;55.030;38.710;2023-04-22T00:23:23;99366.16;;;8.45;31.30
74544;BME280;63016;55.030;38.710;2023-04-22T00:25:49;99367.78;;;8.46;31.04
74544;BME280;63016;55.030;38.710;2023-04-22T00:28:17;99371.84;;;8.40;31.89
74544;BME280;63016;55.030;38.710;2023-04-22T00:30:43;99369.72;;;8.36;31.48
74544;BME280;63016;55.030;38.710;2023-04-22T00:33:08;99376.25;;;8.32;31.23
74544;BME280;63016;55.030;38.710;2023-04-22T00:35:34;99374.13;;;8.27;31.48
74544;BME280;63016;55.030;38.710;2023-04-22T00:37:59;99377.84;;;8.24;31.23
74544;BME280;63016;55.030;38.710;2023-04-22T00:40:25;99374.75;;;8.21;31.07
74544;BME280;63016;55.030;38.710;2023-04-22T00:42:50;99358.88;;;8.08;31.61
74544;BME280;63016;55.030;38.710;2023-04-22T00:45:18;99379.81;;;8.14;31.72
74544;BME280;63016;55.030;38.710;2023-04-22T00:47:44;99365.69;;;8.09;31.65
74544;BME280;63016;55.030;38.710;2023-04-22T00:50:13;99359.97;;;8.05;31.71
74544;BME280;63016;55.030;38.710;2023-04-22T00:52:39;99369.25;;;8.08;31.68
74544;BME280;63016;55.030;38.710;2023-04-22T00:55:05;99364.69;;;8.02;31.49
74544;BME280;63016;55.030;38.710;2023-04-22T00:57:31;99359.66;;;8.00;32.07
74544;BME280;63016;55.030;38.710;2023-04-22T00:59:58;99334.81;;;7.81;32.23
74544;BME280;63016;55.030;38.710;2023-04-22T01:02:23;99358.84;;;7.91;32.28
74544;BME280;63016;55.030;38.710;2023-04-22T01:04:49;99350.53;;;7.88;31.49
74544;BME280;63016;55.030;38.710;2023-04-22T01:07:18;99355.44;;;7.91;32.17
74544;BME280;63016;55.030;38.710;2023-04-22T01:09:43;99352.34;;;7.87;31.84
74544;BME280;63016;55.030;38.710;2023-04-22T01:12:10;99348.47;;;7.83;31.79
74544;BME280;63016;55.030;38.710;2023-04-22T01:14:35;99353.00;;;7.81;31.85
74544;BME280;63016;55.030;38.710;2023-04-22T01:17:01;99351.69;;;7.77;32.59
74544;BME280;63016;55.030;38.710;2023-04-22T01:19:29;99342.75;;;7.71;31.86
74544;BME280;63016;55.030;38.710;2023-04-22T01:21:56;99348.75;;;7.72;31.96
74544;BME280;63016;55.030;38.710;2023-04-22T01:24:22;99343.22;;;7.67;31.85
74544;BME280;63016;55.030;38.710;2023-04-22T01:26:48;99343.91;;;7.69;31.63
74544;BME280;63016;55.030;38.710;2023-04-22T01:29:14;99345.81;;;7.67;31.59
74544;BME280;63016;55.030;38.710;2023-04-22T01:31:43;99337.06;;;7.60;31.95
74544;BME280;63016;55.030;38.710;2023-04-22T01:34:08;99339.00;;;7.58;31.96
74544;BME280;63016;55.030;38.710;2023-04-22T01:36:35;99341.75;;;7.56;32.35
74544;BME280;63016;55.030;38.710;2023-04-22T01:39:00;99342.75;;;7.55;31.87
74544;BME280;63016;55.030;38.710;2023-04-22T01:41:26;99339.00;;;7.50;32.41
74544;BME280;63016;55.030;38.710;2023-04-22T01:43:52;99339.31;;;7.46;32.37
74544;BME280;63016;55.030;38.710;2023-04-22T01:46:18;99341.22;;;7.44;32.22
74544;BME280;63016;55.030;38.710;2023-04-22T01:48:44;99345.31;;;7.47;32.12
74544;BME280;63016;55.030;38.710;2023-04-22T01:51:15;99346.41;;;7.44;32.14
74544;BME280;63016;55.030;38.710;2023-04-22T01:53:41;99335.88;;;7.38;32.46
74544;BME280;63016;55.030;38.710;2023-04-22T01:56:07;99343.50;;;7.39;31.87
74544;BME280;63016;55.030;38.710;2023-04-22T01:58:32;99337.03;;;7.35;32.20
74544;BME280;63016;55.030;38.710;2023-04-22T02:00:58;99340.41;;;7.36;32.10
74544;BME280;63016;55.030;38.710;2023-04-22T02:03:23;99336.19;;;7.35;32.15
74544;BME280;63016;55.030;38.710;2023-04-22T02:05:49;99326.28;;;7.22;32.37
74544;BME280;63016;55.030;38.710;2023-04-22T02:08:14;99339.28;;;7.30;31.94
74544;BME280;63016;55.030;38.710;2023-04-22T02:10:47;99351.56;;;7.28;32.19
74544;BME280;63016;55.030;38.710;2023-04-22T02:13:13;99343.16;;;7.26;32.00
74544;BME280;63016;55.030;38.710;2023-04-22T02:15:38;99349.28;;;7.25;32.33
74544;BME280;63016;55.030;38.710;2023-04-22T02:18:06;99346.06;;;7.23;32.43
74544;BME280;63016;55.030;38.710;2023-04-22T02:20:32;99339.41;;;7.20;32.29
74544;BME280;63016;55.030;38.710;2023-04-22T02:22:58;99343.75;;;7.20;32.46
74544;BME280;63016;55.030;38.710;2023-04-22T02:25:24;99349.13;;;7.18;33.04
74544;BME280;63016;55.030;38.710;2023-04-22T02:27:49;99338.75;;;7.18;32.46
74544;BME280;63016;55.030;38.710;2023-04-22T02:30:15;99349.28;;;7.17;32.14
74544;BME280;63016;55.030;38.710;2023-04-22T02:32:40;99351.88;;;7.17;32.87
74544;BME280;63016;55.030;38.710;2023-04-22T02:35:06;99341.63;;;7.15;32.67
74544;BME280;63016;55.030;38.710;2023-04-22T02:37:31;99346.81;;;7.15;32.48
74544;BME280;63016;55.030;38.710;2023-04-22T02:39:57;99348.47;;;7.16;32.60
74544;BME280;63016;55.030;38.710;2023-04-22T02:42:22;99349.28;;;7.17;33.01
74544;BME280;63016;55.030;38.710;2023-04-22T02:44:48;99350.91;;;7.18;32.73
74544;BME280;63016;55.030;38.710;2023-04-22T02:47:13;99356.72;;;7.20;32.91
74544;BME280;63016;55.030;38.710;2023-04-22T02:49:39;99347.66;;;7.16;32.85
74544;BME280;63016;55.030;38.710;2023-04-22T02:52:04;99363.41;;;7.22;33.17
74544;BME280;63016;55.030;38.710;2023-04-22T02:54:30;99359.03;;;7.23;32.78
74544;BME280;63016;55.030;38.710;2023-04-22T02:56:55;99361.16;;;7.28;33.56
74544;BME280;63016;55.030;38.710;2023-04-22T02:59:22;99353.53;;;7.26;33.01
74544;BME280;63016;55.030;38.710;2023-04-22T03:01:48;99361.50;;;7.33;33.60
74544;BME280;63016;55.030;38.710;2023-04-22T03:04:14;99359.41;;;7.36;33.43
74544;BME280;63016;55.030;38.710;2023-04-22T03:06:40;99357.78;;;7.35;33.01
74544;BME280;63016;55.030;38.710;2023-04-22T03:09:05;99357.94;;;7.42;33.38
74544;BME280;63016;55.030;38.710;2023-04-22T03:11:31;99360.38;;;7.43;33.53
74544;BME280;63016;55.030;38.710;2023-04-22T03:13:56;99364.13;;;7.49;33.33
74544;BME280;63016;55.030;38.710;2023-04-22T03:16:23;99360.25;;;7.53;32.93
74544;BME280;63016;55.030;38.710;2023-04-22T03:18:48;99365.63;;;7.60;33.49
74544;BME280;63016;55.030;38.710;2023-04-22T03:21:14;99372.78;;;7.66;33.45
74544;BME280;63016;55.030;38.710;2023-04-22T03:23:39;99370.69;;;7.69;33.57
74544;BME280;63016;55.030;38.710;2023-04-22T03:26:05;99365.66;;;7.76;33.80
74544;BME280;63016;55.030;38.710;2023-04-22T03:28:31;99372.16;;;7.88;33.41
74544;BME280;63016;55.030;38.710;2023-04-22T03:30:56;99379.81;;;7.98;34.18
74544;BME280;63016;55.030;38.710;2023-04-22T03:33:22;99378.00;;;8.07;33.88
74544;BME280;63016;55.030;38.710;2023-04-22T03:35:47;99380.31;;;8.18;33.48
74544;BME280;63016;55.030;38.710;2023-04-22T03:38:16;99380.78;;;8.30;34.45
74544;BME280;63016;55.030;38.710;2023-04-22T03:40:42;99377.06;;;8.40;34.32
74544;BME280;63016;55.030;38.710;2023-04-22T03:43:08;99384.69;;;8.50;34.25
74544;BME280;63016;55.030;38.710;2023-04-22T03:45:36;99390.00;;;8.65;34.42
74544;BME280;63016;55.030;38.710;2023-04-22T03:48:01;99379.09;;;8.78;34.31
74544;BME280;63016;55.030;38.710;2023-04-22T03:50:27;99375.81;;;8.92;34.52
74544;BME280;63016;55.030;38.710;2023-04-22T03:52:52;99375.31;;;9.05;33.80
74544;BME280;63016;55.030;38.710;2023-04-22T03:55:17;99386.63;;;9.20;34.20
74544;BME280;63016;55.030;38.710;2023-04-22T03:57:43;99386.06;;;9.33;34.05
74544;BME280;63016;55.030;38.710;2023-04-22T04:00:09;99381.47;;;9.43;34.39
74544;BME280;63016;55.030;38.710;2023-04-22T04:02:34;99385.63;;;9.52;34.02
74544;BME280;63016;55.030;38.710;2023-04-22T04:05:00;99381.38;;;9.59;33.97
74544;BME280;63016;55.030;38.710;2023-04-22T04:07:26;99379.38;;;9.69;34.61
74544;BME280;63016;55.030;38.710;2023-04-22T04:09:52;99375.63;;;9.72;34.20
74544;BME280;63016;55.030;38.710;2023-04-22T04:12:17;99385.63;;;9.83;34.33
74544;BME280;63016;55.030;38.710;2023-04-22T04:14:43;99388.34;;;9.90;34.42
74544;BME280;63016;55.030;38.710;2023-04-22T04:17:08;99392.88;;;9.96;34.52
74544;BME280;63016;55.030;38.710;2023-04-22T04:19:37;99389.13;;;9.98;34.18
74544;BME280;63016;55.030;38.710;2023-04-22T04:22:02;99388.69;;;10.10;33.91
74544;BME280;63016;55.030;38.710;2023-04-22T04:24:28;99393.22;;;10.16;33.99
74544;BME280;63016;55.030;38.710;2023-04-22T04:26:54;99394.31;;;10.21;34.16
74544;BME280;63016;55.030;38.710;2023-04-22T04:29:19;99396.25;;;10.27;33.91
74544;BME280;63016;55.030;38.710;2023-04-22T04:31:45;99391.22;;;10.26;34.13
74544;BME280;63016;55.030;38.710;2023-04-22T04:34:10;99395.38;;;10.35;34.15
74544;BME280;63016;55.030;38.710;2023-04-22T04:36:54;99397.56;;;10.46;33.59
74544;BME280;63016;55.030;38.710;2023-04-22T04:39:22;99397.75;;;10.45;34.03
74544;BME280;63016;55.030;38.710;2023-04-22T04:44:32;99393.09;;;10.55;34.49
74544;BME280;63016;55.030;38.710;2023-04-22T04:46:58;99400.66;;;10.65;33.87
74544;BME280;63016;55.030;38.710;2023-04-22T04:49:23;99399.31;;;10.69;33.57
74544;BME280;63016;55.030;38.710;2023-04-22T04:51:49;99382.41;;;10.65;34.00
74544;BME280;63016;55.030;38.710;2023-04-22T04:54:15;99404.09;;;10.80;34.04
74544;BME280;63016;55.030;38.710;2023-04-22T04:56:41;99402.22;;;10.89;34.70
74544;BME280;63016;55.030;38.710;2023-04-22T04:59:06;99399.50;;;10.97;34.68
74544;BME280;63016;55.030;38.710;2023-04-22T05:01:32;99399.50;;;11.12;34.48
74544;BME280;63016;55.030;38.710;2023-04-22T05:03:57;99404.88;;;11.25;34.74
74544;BME280;63016;55.030;38.710;2023-04-22T05:06:23;99404.06;;;11.39;34.79
74544;BME280;63016;55.030;38.710;2023-04-22T05:08:48;99404.84;;;11.54;34.44
74544;BME280;63016;55.030;38.710;2023-04-22T05:11:14;99402.94;;;11.63;34.28
74544;BME280;63016;55.030;38.710;2023-04-22T05:13:39;99398.22;;;11.73;34.56
74544;BME280;63016;55.030;38.710;2023-04-22T05:16:05;99399.56;;;11.84;34.23
74544;BME280;63016;55.030;38.710;2023-04-22T05:18:30;99403.31;;;11.96;34.30
74544;BME280;63016;55.030;38.710;2023-04-22T05:20:56;99412.72;;;12.12;34.38
74544;BME280;63016;55.030;38.710;2023-04-22T05:23:27;99405.03;;;12.32;34.64
74544;BME280;63016;55.030;38.710;2023-04-22T05:25:54;99405.38;;;12.50;34.65
74544;BME280;63016;55.030;38.710;2023-04-22T05:28:19;99399.88;;;12.67;34.83
74544;BME280;63016;55.030;38.710;2023-04-22T05:30:45;99395.59;;;12.87;34.45
74544;BME280;63016;55.030;38.710;2023-04-22T05:33:10;99402.34;;;13.09;34.38
74544;BME280;63016;55.030;38.710;2023-04-22T05:35:39;99398.00;;;13.23;34.20
74544;BME280;63016;55.030;38.710;2023-04-22T05:38:04;99398.31;;;13.48;34.22
74544;BME280;63016;55.030;38.710;2023-04-22T05:40:30;99404.25;;;13.70;34.12
74544;BME280;63016;55.030;38.710;2023-04-22T05:42:56;99400.47;;;13.93;33.95
74544;BME280;63016;55.030;38.710;2023-04-22T05:45:21;99392.81;;;14.11;33.94
74544;BME280;63016;55.030;38.710;2023-04-22T05:47:47;99398.28;;;14.29;33.57
74544;BME280;63016;55.030;38.710;2023-04-22T05:50:13;99403.31;;;14.44;33.45
74544;BME280;63016;55.030;38.710;2023-04-22T05:52:39;99400.34;;;14.60;33.71
74544;BME280;63016;55.030;38.710;2023-04-22T05:55:04;99396.28;;;14.71;33.60
74544;BME280;63016;55.030;38.710;2023-04-22T05:57:30;99391.41;;;14.81;33.65
74544;BME280;63016;55.030;38.710;2023-04-22T05:59:59;99404.88;;;15.05;33.44
74544;BME280;63016;55.030;38.710;2023-04-22T06:02:24;99411.50;;;15.21;33.33
74544;BME280;63016;55.030;38.710;2023-04-22T06:04:50;99396.09;;;15.31;33.01
74544;BME280;63016;55.030;38.710;2023-04-22T06:07:15;99402.88;;;15.52;33.23
74544;BME280;63016;55.030;38.710;2023-04-22T06:09:41;99394.34;;;15.63;32.83
74544;BME280;63016;55.030;38.710;2023-04-22T06:12:07;99403.38;;;15.80;33.08
74544;BME280;63016;55.030;38.710;2023-04-22T06:14:32;99396.81;;;15.96;33.13
74544;BME280;63016;55.030;38.710;2023-04-22T06:16:58;99396.72;;;16.09;32.55
74544;BME280;63016;55.030;38.710;2023-04-22T06:19:23;99405.94;;;16.25;32.60
74544;BME280;63016;55.030;38.710;2023-04-22T06:21:49;99408.66;;;16.37;32.76
74544;BME280;63016;55.030;38.710;2023-04-22T06:24:14;99398.84;;;16.51;32.30
74544;BME280;63016;55.030;38.710;2023-04-22T06:26:40;99393.81;;;16.67;32.02
74544;BME280;63016;55.030;38.710;2023-04-22T06:29:05;99395.91;;;16.84;31.81
74544;BME280;63016;55.030;38.710;2023-04-22T06:31:31;99393.59;;;16.94;31.96
74544;BME280;63016;55.030;38.710;2023-04-22T06:33:57;99398.13;;;17.05;31.75
74544;BME280;63016;55.030;38.710;2023-04-22T06:36:23;99404.47;;;17.16;31.87
74544;BME280;63016;55.030;38.710;2023-04-22T06:38:49;99398.91;;;17.24;31.40
74544;BME280;63016;55.030;38.710;2023-04-22T06:41:16;99403.69;;;17.34;31.84
74544;BME280;63016;55.030;38.710;2023-04-22T06:43:43;99415.53;;;17.43;31.56
74544;BME280;63016;55.030;38.710;2023-04-22T06:46:09;99404.88;;;17.50;31.08
74544;BME280;63016;55.030;38.710;2023-04-22T06:48:35;99400.59;;;17.55;31.01
74544;BME280;63016;55.030;38.710;2023-04-22T06:51:00;99400.84;;;17.65;31.34
74544;BME280;63016;55.030;38.710;2023-04-22T06:53:26;99402.88;;;17.82;31.24
74544;BME280;63016;55.030;38.710;2023-04-22T06:55:52;99393.19;;;17.94;31.15
74544;BME280;63016;55.030;38.710;2023-04-22T06:58:19;99400.69;;;18.09;31.08
74544;BME280;63016;55.030;38.710;2023-04-22T07:00:45;99403.31;;;18.20;31.13
74544;BME280;63016;55.030;38.710;2023-04-22T07:03:11;99403.56;;;18.31;30.86
74544;BME280;63016;55.030;38.710;2023-04-22T07:05:36;99386.47;;;18.33;30.95
74544;BME280;63016;55.030;38.710;2023-04-22T07:08:02;99404.50;;;18.48;30.74
74544;BME280;63016;55.030;38.710;2023-04-22T07:10:27;99407.72;;;18.50;30.74
74544;BME280;63016;55.030;38.710;2023-04-22T07:12:53;99404.75;;;18.58;30.68
74544;BME280;63016;55.030;38.710;2023-04-22T07:15:21;99405.34;;;18.72;30.81
74544;BME280;63016;55.030;38.710;2023-04-22T07:17:46;99405.94;;;18.86;30.63
74544;BME280;63016;55.030;38.710;2023-04-22T07:20:12;99402.09;;;18.93;30.36
74544;BME280;63016;55.030;38.710;2023-04-22T07:22:37;99399.91;;;19.02;30.43
74544;BME280;63016;55.030;38.710;2023-04-22T07:25:03;99399.47;;;19.05;30.19
74544;BME280;63016;55.030;38.710;2023-04-22T07:27:31;99397.50;;;19.12;30.07
74544;BME280;63016;55.030;38.710;2023-04-22T07:29:57;99391.63;;;19.10;29.69
74544;BME280;63016;55.030;38.710;2023-04-22T07:32:22;99403.03;;;19.11;30.04
74544;BME280;63016;55.030;38.710;2023-04-22T07:34:48;99392.44;;;19.11;29.89
74544;BME280;63016;55.030;38.710;2023-04-22T07:37:13;99396.94;;;19.10;29.91
74544;BME280;63016;55.030;38.710;2023-04-22T07:39:39;99381.97;;;19.04;29.57
74544;BME280;63016;55.030;38.710;2023-04-22T07:42:04;99392.28;;;19.17;29.85
74544;BME280;63016;55.030;38.710;2023-04-22T07:44:31;99390.34;;;19.24;29.78
74544;BME280;63016;55.030;38.710;2023-04-22T07:46:57;99394.91;;;19.29;30.08
74544;BME280;63016;55.030;38.710;2023-04-22T07:49:23;99395.72;;;19.30;29.90
74544;BME280;63016;55.030;38.710;2023-04-22T07:51:49;99399.28;;;19.35;29.86
74544;BME280;63016;55.030;38.710;2023-04-22T07:54:15;99403.28;;;19.38;30.79
74544;BME280;63016;55.030;38.710;2023-04-22T07:56:41;99404.88;;;19.39;30.21
74544;BME280;63016;55.030;38.710;2023-04-22T07:59:06;99390.28;;;19.36;30.06
74544;BME280;63016;55.030;38.710;2023-04-22T08:01:32;99405.81;;;19.33;29.59
74544;BME280;63016;55.030;38.710;2023-04-22T08:03:58;99412.31;;;19.25;29.37
74544;BME280;63016;55.030;38.710;2023-04-22T08:06:23;99395.41;;;19.14;29.22
74544;BME280;63016;55.030;38.710;2023-04-22T08:08:49;99390.00;;;19.09;29.27
74544;BME280;63016;55.030;38.710;2023-04-22T08:11:14;99401.97;;;19.00;29.11
74544;BME280;63016;55.030;38.710;2023-04-22T08:13:40;99408.69;;;18.91;29.06
74544;BME280;63016;55.030;38.710;2023-04-22T08:16:05;99405.94;;;18.86;29.47
74544;BME280;63016;55.030;38.710;2023-04-22T08:18:31;99402.69;;;18.84;29.24
74544;BME280;63016;55.030;38.710;2023-04-22T08:20:57;99395.09;;;18.75;29.37
74544;BME280;63016;55.030;38.710;2023-04-22T08:23:22;99393.75;;;18.73;29.32
74544;BME280;63016;55.030;38.710;2023-04-22T08:25:48;99395.94;;;18.76;29.41
74544;BME280;63016;55.030;38.710;2023-04-22T08:28:14;99397.31;;;18.79;29.54
74544;BME280;63016;55.030;38.710;2023-04-22T08:30:39;99407.53;;;18.87;29.58
74544;BME280;63016;55.030;38.710;2023-04-22T08:33:05;99406.16;;;18.96;29.44
74544;BME280;63016;55.030;38.710;2023-04-22T08:35:33;99393.50;;;18.98;29.54
74544;BME280;63016;55.030;38.710;2023-04-22T08:37:59;99400.72;;;19.03;29.34
74544;BME280;63016;55.030;38.710;2023-04-22T08:40:26;99401.19;;;18.99;29.05
74544;BME280;63016;55.030;38.710;2023-04-22T08:42:51;99395.22;;;18.92;28.93
74544;BME280;63016;55.030;38.710;2023-04-22T08:45:17;99406.59;;;18.93;29.21
74544;BME280;63016;55.030;38.710;2023-04-22T08:47:43;99407.41;;;18.93;29.01
74544;BME280;63016;55.030;38.710;2023-04-22T08:50:09;99409.81;;;18.95;29.19
74544;BME280;63016;55.030;38.710;2023-04-22T08:52:36;99395.22;;;18.92;29.08
74544;BME280;63016;55.030;38.710;2023-04-22T08:55:01;99405.56;;;18.94;28.84
74544;BME280;63016;55.030;38.710;2023-04-22T08:57:29;99404.75;;;18.93;28.81
74544;BME280;63016;55.030;38.710;2023-04-22T08:59:55;99407.06;;;18.90;28.63
74544;BME280;63016;55.030;38.710;2023-04-22T09:02:23;99396.38;;;18.85;29.04
74544;BME280;63016;55.030;38.710;2023-04-22T09:04:51;99403.28;;;18.86;28.86
74544;BME280;63016;55.030;38.710;2023-04-22T09:07:25;99407.41;;;18.82;28.78
74544;BME280;63016;55.030;38.710;2023-04-22T09:09:54;99396.84;;;18.82;28.60
74544;BME280;63016;55.030;38.710;2023-04-22T09:12:20;99393.06;;;18.78;29.03
74544;BME280;63016;55.030;38.710;2023-04-22T09:14:46;99395.81;;;18.83;28.86
74544;BME280;63016;55.030;38.710;2023-04-22T09:17:15;99399.81;;;18.85;28.58
74544;BME280;63016;55.030;38.710;2023-04-22T09:19:41;99408.44;;;18.81;28.61
74544;BME280;63016;55.030;38.710;2023-04-22T09:22:11;99403.53;;;18.72;28.51
74544;BME280;63016;55.030;38.710;2023-04-22T09:24:43;99405.34;;;18.72;28.73
74544;BME280;63016;55.030;38.710;2023-04-22T09:27:13;99400.50;;;18.81;29.17
74544;BME280;63016;55.030;38.710;2023-04-22T09:29:47;99393.63;;;18.91;29.22
74544;BME280;63016;55.030;38.710;2023-04-22T09:32:12;99384.50;;;18.99;29.06
74544;BME280;63016;55.030;38.710;2023-04-22T09:35:04;99396.34;;;19.08;29.47
74544;BME280;63016;55.030;38.710;2023-04-22T09:37:30;99403.22;;;19.09;28.60
74544;BME280;63016;55.030;38.710;2023-04-22T09:39:57;99401.06;;;19.06;28.45
74544;BME280;63016;55.030;38.710;2023-04-22T09:42:23;99402.66;;;19.07;28.48
74544;BME280;63016;55.030;38.710;2023-04-22T09:44:50;99398.19;;;19.08;28.13
74544;BME280;63016;55.030;38.710;2023-04-22T09:47:20;99397.28;;;19.02;28.46
74544;BME280;63016;55.030;38.710;2023-04-22T09:49:48;99397.84;;;19.04;28.53
74544;BME280;63016;55.030;38.710;2023-04-22T09:52:21;99385.53;;;19.10;28.51
74544;BME280;63016;55.030;38.710;2023-04-22T09:54:50;99384.50;;;19.11;28.58
74544;BME280;63016;55.030;38.710;2023-04-22T09:57:16;99393.91;;;19.18;28.47
74544;BME280;63016;55.030;38.710;2023-04-22T09:59:42;99404.72;;;19.17;28.04
74544;BME280;63016;55.030;38.710;2023-04-22T10:02:08;99395.63;;;19.13;28.06
74544;BME280;63016;55.030;38.710;2023-04-22T10:04:34;99397.72;;;19.11;28.29
74544;BME280;63016;55.030;38.710;2023-04-22T10:06:59;99399.88;;;19.14;28.54
74544;BME280;63016;55.030;38.710;2023-04-22T10:09:27;99398.88;;;19.15;28.22
74544;BME280;63016;55.030;38.710;2023-04-22T10:11:55;99401.03;;;19.18;28.30
74544;BME280;63016;55.030;38.710;2023-04-22T10:14:22;99413.81;;;19.21;28.28
74544;BME280;63016;55.030;38.710;2023-04-22T10:16:50;99383.47;;;19.12;28.10
74544;BME280;63016;55.030;38.710;2023-04-22T10:19:20;99405.06;;;19.20;28.47
74544;BME280;63016;55.030;38.710;2023-04-22T10:21:48;99409.56;;;19.20;28.07
74544;BME280;63016;55.030;38.710;2023-04-22T10:24:18;99409.31;;;19.21;28.34
74544;BME280;63016;55.030;38.710;2023-04-22T10:26:54;99406.63;;;19.33;28.20
74544;BME280;63016;55.030;38.710;2023-04-22T10:29:22;99399.38;;;19.40;28.17
74544;BME280;63016;55.030;38.710;2023-04-22T10:34:43;99403.00;;;19.51;28.16
74544;BME280;63016;55.030;38.710;2023-04-22T10:37:11;99401.25;;;19.57;28.16
74544;BME280;63016;55.030;38.710;2023-04-22T10:39:38;99399.31;;;19.64;28.14
74544;BME280;63016;55.030;38.710;2023-04-22T10:42:09;99397.66;;;19.74;28.30
74544;BME280;63016;55.030;38.710;2023-04-22T10:47:37;99399.31;;;19.92;28.52
74544;BME280;63016;55.030;38.710;2023-04-22T10:52:33;99399.72;;;19.72;27.44
74544;BME280;63016;55.030;38.710;2023-04-22T10:55:00;99403.91;;;19.68;27.67
74544;BME280;63016;55.030;38.710;2023-04-22T10:57:31;99413.81;;;19.61;27.51
74544;BME280;63016;55.030;38.710;2023-04-22T11:02:43;99398.06;;;19.55;27.27
74544;BME280;63016;55.030;38.710;2023-04-22T11:05:23;99400.47;;;19.56;28.07
74544;BME280;63016;55.030;38.710;2023-04-22T11:07:53;99387.81;;;19.58;27.68
74544;BME280;63016;55.030;38.710;2023-04-22T11:10:35;99377.56;;;19.62;27.87
74544;BME280;63016;55.030;38.710;2023-04-22T11:13:05;99395.28;;;19.61;27.76
74544;BME280;63016;55.030;38.710;2023-04-22T11:15:37;99384.81;;;19.55;27.21
74544;BME280;63016;55.030;38.710;2023-04-22T11:18:08;99403.47;;;19.48;27.53
74544;BME280;63016;55.030;38.710;2023-04-22T11:20:36;99408.91;;;19.41;27.42
74544;BME280;63016;55.030;38.710;2023-04-22T11:23:02;99398.69;;;19.33;27.28
74544;BME280;63016;55.030;38.710;2023-04-22T11:25:28;99397.00;;;19.27;27.77
74544;BME280;63016;55.030;38.710;2023-04-22T11:27:55;99404.47;;;19.30;27.73
74544;BME280;63016;55.030;38.710;2023-04-22T11:30:22;99392.13;;;19.36;27.63
74544;BME280;63016;55.030;38.710;2023-04-22T11:32:51;99400.72;;;19.43;27.67
74544;BME280;63016;55.030;38.710;2023-04-22T11:37:50;99387.03;;;19.46;27.50
74544;BME280;63016;55.030;38.710;2023-04-22T11:40:21;99380.78;;;19.52;27.89
74544;BME280;63016;55.030;38.710;2023-04-22T11:42:49;99388.94;;;19.62;27.54
74544;BME280;63016;55.030;38.710;2023-04-22T11:45:15;99386.41;;;19.67;27.55
74544;BME280;63016;55.030;38.710;2023-04-22T11:47:41;99390.44;;;19.70;27.25
74544;BME280;63016;55.030;38.710;2023-04-22T11:50:10;99391.94;;;19.66;27.11
74544;BME280;63016;55.030;38.710;2023-04-22T11:52:52;99387.69;;;19.53;27.31
74544;BME280;63016;55.030;38.710;2023-04-22T11:55:28;99385.91;;;19.42;27.32
74544;BME280;63016;55.030;38.710;2023-04-22T12:00:36;99386.00;;;19.47;27.38
74544;BME280;63016;55.030;38.710;2023-04-22T12:08:05;99382.00;;;19.44;27.21
74544;BME280;63016;55.030;38.710;2023-04-22T12:10:31;99379.25;;;19.39;27.56
74544;BME280;63016;55.030;38.710;2023-04-22T12:12:56;99372.34;;;19.38;27.31
74544;BME280;63016;55.030;38.710;2023-04-22T12:15:22;99366.22;;;19.49;27.38
74544;BME280;63016;55.030;38.710;2023-04-22T12:17:53;99373.44;;;19.54;27.32
74544;BME280;63016;55.030;38.710;2023-04-22T12:20:18;99374.69;;;19.51;27.11
74544;BME280;63016;55.030;38.710;2023-04-22T12:22:44;99372.22;;;19.45;27.11
74544;BME280;63016;55.030;38.710;2023-04-22T12:25:16;99381.91;;;19.39;27.13
74544;BME280;63016;55.030;38.710;2023-04-22T12:27:42;99380.16;;;19.33;27.02
74544;BME280;63016;55.030;38.710;2023-04-22T12:30:08;99377.22;;;19.30;26.87
74544;BME280;63016;55.030;38.710;2023-04-22T12:32:36;99382.88;;;19.21;26.93
74544;BME280;63016;55.030;38.710;2023-04-22T12:35:02;99378.28;;;19.17;27.03
74544;BME280;63016;55.030;38.710;2023-04-22T12:37:28;99378.53;;;19.15;26.95
74544;BME280;63016;55.030;38.710;2023-04-22T12:39:53;99376.88;;;19.14;26.97
74544;BME280;63016;55.030;38.710;2023-04-22T12:42:22;99370.69;;;19.09;27.15
74544;BME280;63016;55.030;38.710;2023-04-22T12:44:56;99376.78;;;19.09;27.14
74544;BME280;63016;55.030;38.710;2023-04-22T12:47:22;99375.88;;;19.04;27.28
74544;BME280;63016;55.030;38.710;2023-04-22T12:49:49;99378.97;;;19.12;27.28
74544;BME280;63016;55.030;38.710;2023-04-22T12:52:17;99375.19;;;19.20;27.59
74544;BME280;63016;55.030;38.710;2023-04-22T12:54:43;99374.88;;;19.33;27.81
74544;BME280;63016;55.030;38.710;2023-04-22T12:57:08;99378.84;;;19.47;27.67
74544;BME280;63016;55.030;38.710;2023-04-22T12:59:34;99379.88;;;19.58;27.42
74544;BME280;63016;55.030;38.710;2023-04-22T13:02:02;99390.00;;;19.61;27.00
74544;BME280;63016;55.030;38.710;2023-04-22T13:04:27;99398.19;;;19.48;26.44
74544;BME280;63016;55.030;38.710;2023-04-22T13:06:53;99391.25;;;19.30;26.75
74544;BME280;63016;55.030;38.710;2023-04-22T13:09:23;99384.59;;;19.16;27.02
74544;BME280;63016;55.030;38.710;2023-04-22T13:11:51;99391.28;;;19.07;26.97
74544;BME280;63016;55.030;38.710;2023-04-22T13:14:17;99398.31;;;19.01;27.05